Time;durP1;ratioP1;P1;durP2;ratioP2;P2;SDS_P1;SDS_P2;PMS_P1;PMS_P2;Temp;Humidity;BMP_temperature;BMP_pressure;BME280_temperature;BME280_humidity;BME280_pressure;Samples;Min_cycle;Max_cycle;Signal;HPM_P1;HPM_P2
2023/05/26 00:00:50;;;;;;;14.45;8.27;;;13.20;99.90;;;12.55;100.00;102074.28;4200854;28;20541;-83
2023/05/26 00:02:51;;;;;;;16.52;8.25;;;13.10;99.90;;;12.42;100.00;102059.63;4185523;28;20047;-83
2023/05/26 00:04:52;;;;;;;16.88;8.57;;;13.10;99.90;;;12.45;100.00;102068.16;4177352;28;20029;-83
2023/05/26 00:06:54;;;;;;;10.75;7.22;;;13.10;99.90;;;12.32;100.00;102053.47;4171429;28;20017;-83
2023/05/26 00:08:55;;;;;;;13.60;8.50;;;13.00;99.90;;;12.34;100.00;102062.09;4200942;28;20033;-83
2023/05/26 00:10:56;;;;;;;13.63;7.95;;;13.00;99.90;;;12.38;100.00;102079.38;4185486;28;20017;-83
2023/05/26 00:12:56;;;;;;;12.45;9.07;;;13.00;99.90;;;12.24;100.00;102058.59;4185397;28;20029;-82
2023/05/26 00:14:57;;;;;;;15.80;7.82;;;13.00;99.90;;;12.21;100.00;102060.53;4185485;28;20072;-83
2023/05/26 00:16:58;;;;;;;12.75;8.20;;;12.90;99.90;;;12.27;100.00;102077.69;4185279;28;20029;-82
2023/05/26 00:19:00;;;;;;;11.93;7.65;;;12.90;99.90;;;12.27;100.00;102083.00;4185321;28;20108;-82
2023/05/26 00:21:01;;;;;;;14.80;8.70;;;12.80;99.90;;;12.24;100.00;102077.13;4185342;28;20508;-83
2023/05/26 00:23:02;;;;;;;16.50;8.95;;;12.80;99.90;;;12.23;100.00;102075.44;4185291;28;20059;-83
2023/05/26 00:25:03;;;;;;;13.65;8.15;;;12.80;99.90;;;12.05;100.00;102054.91;4178560;28;20044;-83
2023/05/26 00:27:04;;;;;;;15.73;8.70;;;12.80;99.90;;;12.06;100.00;102061.91;4168788;28;20034;-83
2023/05/26 00:29:05;;;;;;;14.90;8.77;;;12.70;99.90;;;12.10;100.00;102076.50;4180177;28;20029;-82
2023/05/26 00:31:06;;;;;;;12.48;8.07;;;12.70;99.90;;;12.09;100.00;102071.38;4169026;28;20072;-80
2023/05/26 00:33:07;;;;;;;19.23;9.90;;;12.70;99.90;;;11.97;100.00;102053.91;4168818;28;20451;-80
2023/05/26 00:35:09;;;;;;;14.52;8.75;;;12.70;99.90;;;11.93;100.00;102053.34;4167329;28;20030;-81
2023/05/26 00:37:09;;;;;;;15.52;9.25;;;12.60;99.90;;;11.85;100.00;102049.69;4176044;28;20024;-82
2023/05/26 00:39:10;;;;;;;17.08;9.07;;;12.60;99.90;;;11.95;100.00;102069.91;4169524;28;20037;-82
2023/05/26 00:41:11;;;;;;;11.45;7.93;;;12.60;99.90;;;11.93;100.00;102073.66;4167658;28;20406;-82
2023/05/26 00:43:12;;;;;;;13.25;8.45;;;12.50;99.90;;;11.77;100.00;102047.69;4173331;28;20048;-82
2023/05/26 00:45:13;;;;;;;15.57;9.02;;;12.50;99.90;;;11.77;100.00;102047.69;4168278;28;20037;-82
2023/05/26 00:47:14;;;;;;;15.45;8.95;;;12.50;99.90;;;11.77;100.00;102052.97;4174243;28;20028;-82
2023/05/26 00:49:15;;;;;;;16.75;9.27;;;12.50;99.90;;;11.74;100.00;102045.31;4167519;28;20572;-86
2023/05/26 00:51:16;;;;;;;17.35;8.93;;;12.40;99.90;;;11.68;100.00;102045.78;4185088;28;20033;-82
2023/05/26 00:53:18;;;;;;;16.65;8.40;;;12.40;99.90;;;11.67;100.00;102057.34;4182810;28;20034;-82
2023/05/26 00:55:20;;;;;;;16.13;9.00;;;12.40;99.90;;;11.63;100.00;102045.38;4183654;28;20047;-83
2023/05/26 00:57:21;;;;;;;19.75;9.48;;;12.40;99.90;;;11.68;100.00;102053.72;4176082;28;20025;-84
2023/05/26 00:59:22;;;;;;;22.60;10.35;;;12.30;99.90;;;11.60;100.00;102048.25;4177337;28;20021;-79
2023/05/26 01:01:25;;;;;;;16.73;10.13;;;12.30;99.90;;;11.67;100.00;102067.94;4183608;28;20029;-78
2023/05/26 01:03:27;;;;;;;13.07;9.63;;;12.30;99.90;;;11.57;100.00;102043.25;4182168;28;20582;-78
2023/05/26 01:05:28;;;;;;;14.25;8.55;;;12.20;99.90;;;11.66;100.00;102063.59;4171772;28;20021;-79
2023/05/26 01:07:29;;;;;;;21.25;9.90;;;12.20;99.90;;;11.64;100.00;102062.91;4191659;28;20039;-79
2023/05/26 01:09:30;;;;;;;15.35;9.50;;;12.20;99.90;;;11.53;100.00;102045.31;4173589;28;20021;-79
2023/05/26 01:11:44;;;;;;;15.52;8.93;;;12.20;99.90;;;11.47;100.00;102031.78;4168346;28;20052;-79
2023/05/26 01:14:11;;;;;;;16.73;9.50;;;12.20;99.90;;;11.55;100.00;102047.84;4173864;28;20076;-79
2023/05/26 01:16:16;;;;;;;18.80;9.45;;;12.20;99.90;;;11.43;100.00;102036.50;4185080;28;20029;-79
2023/05/26 01:18:31;;;;;;;15.55;8.95;;;12.10;99.90;;;11.46;100.00;102043.31;4183519;28;20048;-79
2023/05/26 01:20:45;;;;;;;16.38;9.00;;;12.10;99.90;;;11.41;100.00;102050.81;4184899;28;20029;-79
2023/05/26 01:22:50;;;;;;;13.77;9.90;;;12.10;99.90;;;11.41;100.00;102054.25;4183651;28;20040;-81
2023/05/26 01:25:24;;;;;;;14.65;10.05;;;12.10;99.90;;;11.42;100.00;102058.59;4184836;28;20116;-81
2023/05/26 01:28:10;;;;;;;16.38;10.02;;;12.00;99.90;;;11.38;100.00;102059.81;4172714;28;20040;-81
2023/05/26 01:30:12;;;;;;;17.52;10.00;;;12.00;99.90;;;11.23;100.00;102041.78;4169353;28;20966;-81
2023/05/26 01:32:16;;;;;;;14.02;9.20;;;12.00;99.90;;;11.23;100.00;102041.78;4173428;28;20033;-80
2023/05/26 01:34:17;;;;;;;16.65;9.75;;;11.90;99.90;;;11.22;100.00;102045.38;4181655;28;20021;-80
2023/05/26 01:36:18;;;;;;;18.58;9.18;;;11.90;99.90;;;11.29;100.00;102059.78;4174475;28;20034;-80
2023/05/26 01:38:19;;;;;;;21.65;10.68;;;11.90;99.90;;;11.18;100.00;102039.50;4175908;28;20063;-80
2023/05/26 01:40:20;;;;;;;17.50;11.00;;;11.90;99.90;;;11.32;100.00;102067.44;4176933;28;20028;-79
2023/05/26 01:42:27;;;;;;;17.70;10.35;;;11.90;99.90;;;11.31;100.00;102063.09;4182690;28;20029;-79
2023/05/26 01:45:00;;;;;;;18.10;10.65;;;11.90;99.90;;;11.26;100.00;102057.38;4166987;28;20120;-80
2023/05/26 01:47:02;;;;;;;18.55;10.07;;;11.90;99.90;;;11.23;100.00;102057.63;4170406;28;20033;-80
2023/05/26 01:49:07;;;;;;;17.20;11.07;;;11.80;99.90;;;11.23;100.00;102057.63;4170914;28;20049;-79
2023/05/26 01:51:09;;;;;;;13.57;9.38;;;11.80;99.90;;;11.18;100.00;102046.59;4170969;28;20030;-79
2023/05/26 01:53:12;;;;;;;18.58;11.05;;;11.80;99.90;;;11.17;100.00;102055.50;4179839;28;20021;-79
2023/05/26 01:55:14;;;;;;;19.95;11.98;;;11.70;99.90;;;11.15;100.00;102055.63;4169926;28;20553;-80
2023/05/26 01:57:16;;;;;;;20.27;11.35;;;11.70;99.90;;;11.05;100.00;102036.25;4173304;28;20083;-80
2023/05/26 01:59:19;;;;;;;17.05;10.93;;;11.70;99.90;;;11.06;100.00;102035.25;4169931;28;20034;-80
2023/05/26 02:01:26;;;;;;;17.67;11.67;;;11.70;99.90;;;11.07;100.00;102039.59;4159431;28;20582;-79
2023/05/26 02:03:27;;;;;;;21.27;11.75;;;11.70;99.90;;;11.01;100.00;102033.00;4185499;28;20063;-77
2023/05/26 02:05:28;;;;;;;19.13;10.30;;;11.70;99.90;;;11.03;100.00;102041.63;4183165;28;20509;-77
2023/05/26 02:07:29;;;;;;;24.02;11.80;;;11.70;99.90;;;11.10;100.00;102048.09;4171778;28;20046;-77
2023/05/26 02:09:30;;;;;;;18.75;10.25;;;11.70;99.90;;;10.95;100.00;102027.41;4181124;28;20028;-77
2023/05/26 02:11:32;;;;;;;18.42;11.20;;;11.60;99.90;;;10.94;100.00;102025.72;4187392;28;20480;-77
2023/05/26 02:13:33;;;;;;;17.33;10.48;;;11.60;99.90;;;10.93;100.00;102038.06;4179855;28;20072;-80
2023/05/26 02:15:33;;;;;;;17.75;10.05;;;11.60;99.90;;;10.91;100.00;102036.53;4178145;28;20412;-83
2023/05/26 02:17:34;;;;;;;15.20;10.18;;;11.60;99.90;;;10.90;100.00;102035.69;4187338;28;20025;-82
2023/05/26 02:19:35;;;;;;;14.65;10.13;;;11.60;99.90;;;11.04;100.00;102061.81;4172823;28;20103;-82
2023/05/26 02:21:36;;;;;;;19.20;12.15;;;11.60;99.90;;;10.92;100.00;102044.34;4175660;28;20443;-82
2023/05/26 02:23:38;;;;;;;17.60;10.85;;;11.60;99.90;;;10.98;100.00;102053.53;4170825;28;20022;-82
2023/05/26 02:25:38;;;;;;;19.98;11.15;;;11.60;99.90;;;10.90;100.00;102040.97;4170765;28;20029;-82
2023/05/26 02:27:39;;;;;;;15.55;10.70;;;11.60;99.90;;;10.91;100.00;102042.66;4179794;28;20032;-82
2023/05/26 02:29:40;;;;;;;15.05;10.48;;;11.50;99.90;;;10.87;100.00;102037.75;4173088;28;20025;-82
2023/05/26 02:31:41;;;;;;;21.65;13.30;;;11.60;99.90;;;10.80;100.00;102032.16;4170442;28;20021;-80
2023/05/26 02:33:42;;;;;;;22.95;11.63;;;11.50;99.90;;;10.74;100.00;102023.88;4185888;28;20018;-86
2023/05/26 02:35:48;;;;;;;19.42;12.65;;;11.50;99.90;;;10.90;100.00;102050.72;4152980;28;20025;-82
2023/05/26 02:37:49;;;;;;;21.17;12.35;;;11.40;99.90;;;10.73;100.00;102030.97;4177177;28;20491;-84
2023/05/26 02:39:50;;;;;;;18.75;11.48;;;11.50;99.90;;;10.81;100.00;102057.56;4170436;28;20029;-80
2023/05/26 02:41:52;;;;;;;20.00;12.10;;;11.40;99.90;;;10.71;100.00;102040.81;4172804;28;20053;-80
2023/05/26 02:43:53;;;;;;;19.77;11.80;;;11.40;99.90;;;10.77;100.00;102053.50;4172894;28;20069;-80
2023/05/26 02:45:54;;;;;;;28.23;13.18;;;11.40;99.90;;;10.77;100.00;102060.59;4172320;28;20555;-83
2023/05/26 02:47:55;;;;;;;22.48;12.55;;;11.40;99.90;;;10.64;100.00;102034.34;4179965;28;20037;-79
2023/05/26 02:49:56;;;;;;;22.50;13.52;;;11.40;99.90;;;10.66;100.00;102040.34;4178862;28;20420;-79
2023/05/26 02:51:57;;;;;;;24.27;13.82;;;11.30;99.90;;;10.73;100.00;102060.00;4172495;28;20053;-79
2023/05/26 02:53:58;;;;;;;21.52;12.38;;;11.30;99.90;;;10.58;100.00;102032.19;4170195;28;20095;-79
2023/05/26 02:55:58;;;;;;;19.50;12.20;;;11.30;99.90;;;10.60;100.00;102040.84;4170229;28;20400;-79
2023/05/26 02:58:01;;;;;;;19.63;14.23;;;11.30;99.90;;;10.60;100.00;102032.94;4172723;28;20053;-79
2023/05/26 03:00:07;;;;;;;22.92;13.00;;;11.30;99.90;;;10.67;100.00;102046.44;4185241;28;20033;-79
2023/05/26 03:02:11;;;;;;;18.55;12.13;;;11.30;99.90;;;10.55;100.00;102035.09;4180259;28;20025;-79
2023/05/26 03:04:12;;;;;;;;;;;11.30;99.90;;;10.59;100.00;102052.38;4173711;28;20029;-79
2023/05/26 03:06:12;;;;;;;27.08;14.65;;;11.20;99.90;;;10.56;100.00;102047.34;4174787;28;20302;-79
2023/05/26 03:08:13;;;;;;;20.48;13.48;;;11.20;99.90;;;10.60;100.00;102056.69;4168765;28;20030;-79
2023/05/26 03:10:14;;;;;;;22.55;13.85;;;11.20;99.90;;;10.55;100.00;102043.00;4186517;28;20028;-79
2023/05/26 03:12:15;;;;;;;24.00;13.60;;;11.20;99.90;;;10.44;100.00;102033.34;4175092;28;20026;-85
2023/05/26 03:14:16;;;;;;;24.48;14.63;;;11.20;99.90;;;10.46;100.00;102036.69;4169820;28;20028;-78
2023/05/26 03:16:19;;;;;;;24.25;14.10;;;11.10;99.90;;;10.53;100.00;102048.41;4169437;28;20025;-78
2023/05/26 03:18:20;;;;;;;21.17;13.57;;;11.10;99.90;;;10.53;100.00;102044.94;4178825;28;20056;-78
2023/05/26 03:20:20;;;;;;;24.63;13.70;;;11.10;99.90;;;10.42;100.00;102035.22;4168517;28;20025;-78
2023/05/26 03:22:21;;;;;;;25.70;14.70;;;11.10;99.90;;;10.49;100.00;102044.34;4169751;28;20489;-79
2023/05/26 03:24:22;;;;;;;24.95;15.25;;;11.10;99.90;;;10.37;100.00;102024.22;4169536;28;20037;-80
2023/05/26 03:26:23;;;;;;;31.98;16.15;;;11.10;99.90;;;10.39;100.00;102029.41;4169765;28;20029;-80
2023/05/26 03:28:24;;;;;;;29.40;15.45;;;11.10;99.90;;;10.39;100.00;102030.22;4169767;28;20460;-80
2023/05/26 03:30:25;;;;;;;23.17;14.90;;;11.10;99.90;;;10.38;100.00;102030.34;4169363;28;20021;-80
2023/05/26 03:32:28;;;;;;;26.60;13.85;;;11.10;99.90;;;10.35;100.00;102027.97;4169590;28;20029;-80
2023/05/26 03:34:29;;;;;;;25.98;14.80;;;11.10;99.90;;;10.34;100.00;102021.00;4169604;28;20029;-80
2023/05/26 03:36:29;;;;;;;29.20;16.30;;;11.00;99.90;;;10.36;100.00;102034.91;4169600;28;20112;-80
2023/05/26 03:38:30;;;;;;;20.52;14.05;;;11.00;99.90;;;10.45;100.00;102047.38;4178055;28;20029;-80
2023/05/26 03:40:31;;;;;;;26.55;15.38;;;11.00;99.90;;;10.44;100.00;102046.53;4170685;28;20067;-79
2023/05/26 03:42:32;;;;;;;30.55;16.17;;;11.00;99.90;;;10.43;100.00;102047.47;4174601;28;20519;-80
2023/05/26 03:44:33;;;;;;;24.77;15.68;;;11.00;99.90;;;10.42;100.00;102039.69;4169426;28;20508;-80
2023/05/26 03:46:34;;;;;;;33.67;17.48;;;11.00;99.90;;;10.40;100.00;102042.44;4169176;28;20013;-86
2023/05/26 03:48:35;;;;;;;31.52;16.58;;;11.00;99.90;;;10.42;100.00;102045.78;4180875;28;20064;-84
2023/05/26 03:50:37;;;;;;;25.35;16.38;;;11.00;99.90;;;10.41;100.00;102046.78;4168656;28;20053;-84
2023/05/26 03:52:38;;;;;;;32.58;18.08;;;11.00;99.90;;;10.37;100.00;102032.13;4169404;28;20030;-84
2023/05/26 03:54:40;;;;;;;29.63;17.55;;;11.00;99.90;;;10.27;100.00;102019.81;4177377;28;20044;-84
2023/05/26 03:56:42;;;;;;;26.10;18.80;;;11.00;99.90;;;10.29;100.00;102026.66;4168068;28;20025;-84
2023/05/26 03:58:42;;;;;;;29.38;18.85;;;11.00;99.90;;;10.25;100.00;102027.00;4169042;28;20032;-83
2023/05/26 04:00:43;;;;;;;27.13;17.63;;;11.00;99.90;;;10.27;100.00;102030.38;4168779;28;20036;-83
2023/05/26 04:02:44;;;;;;;27.67;16.48;;;11.00;99.90;;;10.21;100.00;102028.22;4169143;28;20108;-81
2023/05/26 04:04:45;;;;;;;29.75;17.10;;;10.90;99.90;;;10.30;100.00;102043.31;4179884;28;20049;-82
2023/05/26 04:06:46;;;;;;;27.55;18.58;;;10.90;99.90;;;10.31;100.00;102039.69;4172360;28;20021;-82
2023/05/26 04:08:47;;;;;;;31.23;17.77;;;10.90;99.90;;;10.24;100.00;102034.09;4183672;28;20017;-82
2023/05/26 04:10:48;;;;;;;32.60;19.08;;;10.90;99.90;;;10.18;100.00;102024.03;4200893;28;20416;-82
2023/05/26 04:12:49;;;;;;;28.80;18.52;;;10.90;99.90;;;10.19;100.00;102033.59;4184141;28;20119;-79
2023/05/26 04:14:50;;;;;;;31.33;19.08;;;10.90;99.90;;;10.18;100.00;102031.94;4185165;28;20033;-80
2023/05/26 04:16:52;;;;;;;36.13;18.02;;;10.90;99.90;;;10.20;100.00;102034.44;4184420;28;20593;-80
2023/05/26 04:18:53;;;;;;;29.30;18.33;;;10.90;99.90;;;10.18;100.00;102031.09;4185378;28;20106;-79
2023/05/26 04:20:54;;;;;;;32.92;19.20;;;10.90;99.90;;;10.27;100.00;102051.47;4185366;28;20432;-80
2023/05/26 04:22:55;;;;;;;25.48;17.95;;;10.90;99.90;;;10.23;100.00;102045.59;4185282;28;20087;-80
2023/05/26 04:24:55;;;;;;;33.58;18.35;;;10.90;99.90;;;10.26;100.00;102052.44;4185558;28;20031;-79
2023/05/26 04:26:57;;;;;;;31.90;18.23;;;10.90;99.90;;;10.26;100.00;102055.06;4180252;28;20085;-80
2023/05/26 04:28:59;;;;;;;31.02;19.08;;;10.90;99.90;;;10.20;100.00;102037.94;4173949;28;20037;-80
2023/05/26 04:31:03;;;;;;;34.38;19.42;;;10.90;99.90;;;10.19;100.00;102032.75;4181139;28;20514;-79
2023/05/26 04:33:05;;;;;;;35.63;19.88;;;10.90;99.90;;;10.28;100.00;102047.84;4176566;28;20025;-80
2023/05/26 04:35:07;;;;;;;35.00;20.52;;;10.90;99.90;;;10.18;100.00;102031.09;4168873;28;20052;-80
2023/05/26 04:37:08;;;;;;;29.05;18.20;;;10.90;99.90;;;10.14;100.00;102033.16;4168727;28;20021;-80
2023/05/26 04:39:09;;;;;;;33.00;18.20;;;10.90;99.90;;;10.18;100.00;102037.22;4168546;28;20057;-80
2023/05/26 04:41:10;;;;;;;33.08;17.70;;;10.90;99.90;;;10.18;100.00;102036.38;4169044;28;20028;-80
2023/05/26 04:43:13;;;;;;;37.85;19.95;;;10.90;99.90;;;10.18;100.00;102039.03;4173779;28;20025;-80
2023/05/26 04:45:14;;;;;;;29.88;19.85;;;10.90;99.90;;;10.20;100.00;102039.72;4172817;28;20483;-80
2023/05/26 04:47:16;;;;;;;33.88;20.02;;;10.90;99.90;;;10.23;100.00;102040.31;4170158;28;20030;-80
2023/05/26 04:49:17;;;;;;;33.25;20.00;;;10.90;99.90;;;10.24;100.00;102046.44;4168522;28;20113;-80
2023/05/26 04:51:18;;;;;;;37.25;19.92;;;11.00;99.90;;;10.27;100.00;102052.31;4168583;28;20481;-80
2023/05/26 04:53:20;;;;;;;34.00;18.80;;;11.00;99.90;;;10.26;100.00;102040.09;4168466;28;20029;-80
2023/05/26 04:55:21;;;;;;;35.10;18.95;;;11.00;99.90;;;10.31;100.00;102037.06;4168409;28;20032;-83
2023/05/26 04:57:22;;;;;;;36.75;21.30;;;11.00;99.90;;;10.33;100.00;102041.28;4168642;28;20026;-83
2023/05/26 04:59:23;;;;;;;32.05;19.67;;;11.00;99.90;;;10.45;100.00;102066.66;4170787;28;20033;-82
2023/05/26 05:01:24;;;;;;;30.65;19.05;;;11.10;99.90;;;10.42;100.00;102058.16;4177839;28;20034;-85
2023/05/26 05:03:25;;;;;;;32.08;19.88;;;11.10;99.90;;;10.43;100.00;102058.03;4183682;28;20032;-84
2023/05/26 05:05:25;;;;;;;39.50;20.50;;;11.10;99.90;;;10.44;100.00;102058.88;4179673;28;20058;-85
2023/05/26 05:07:26;;;;;;;29.75;19.63;;;11.10;99.90;;;10.58;100.00;102069.16;4188688;28;20419;-85
2023/05/26 05:09:27;;;;;;;31.95;20.02;;;11.10;99.90;;;10.48;100.00;102052.41;4184265;28;20025;-85
2023/05/26 05:11:28;;;;;;;28.80;18.60;;;11.20;99.90;;;10.50;100.00;102053.09;4180651;28;20052;-84
2023/05/26 05:13:30;;;;;;;31.77;19.23;;;11.20;99.90;;;10.57;100.00;102059.56;4171475;28;20025;-79
2023/05/26 05:15:31;;;;;;;33.10;18.73;;;11.20;99.90;;;10.68;100.00;102075.38;4183313;28;20017;-78
2023/05/26 05:17:32;;;;;;;30.52;19.58;;;11.30;99.90;;;10.69;100.00;102071.78;4169830;28;20489;-78
2023/05/26 05:19:33;;;;;;;29.08;19.38;;;11.30;99.90;;;10.59;100.00;102060.28;4170524;28;20018;-83
2023/05/26 05:21:34;;;;;;;32.70;19.42;;;11.30;99.90;;;10.66;100.00;102064.09;4185020;28;20063;-86
2023/05/26 05:23:35;;;;;;;31.17;19.05;;;11.30;99.90;;;10.77;100.00;102071.97;4170611;28;20025;-86
2023/05/26 05:25:36;;;;;;;35.35;19.73;;;11.30;99.90;;;10.78;100.00;102060.44;4170237;28;20025;-81
2023/05/26 05:27:36;;;;;;;29.38;18.63;;;11.40;99.90;;;10.74;100.00;102059.03;4171440;28;20485;-82
2023/05/26 05:29:37;;;;;;;37.35;20.30;;;11.40;99.90;;;10.76;100.00;102054.47;4171524;28;20064;-82
2023/05/26 05:31:38;;;;;;;30.13;19.55;;;11.40;99.90;;;10.83;100.00;102068.00;4172374;28;20040;-88
2023/05/26 05:33:40;;;;;;;30.77;21.02;;;11.40;99.90;;;10.85;100.00;102072.19;4174510;28;20037;-81
2023/05/26 05:35:41;;;;;;;31.88;19.75;;;11.50;99.90;;;10.95;100.00;102096.88;4170938;28;20100;-81
2023/05/26 05:37:42;;;;;;;25.77;18.35;;;11.50;99.90;;;10.89;100.00;102070.13;4171424;28;20068;-80
2023/05/26 05:39:43;;;;;;;31.15;19.45;;;11.50;99.90;;;10.94;100.00;102074.06;4171441;28;20431;-81
2023/05/26 05:41:44;;;;;;;27.02;18.73;;;11.60;99.90;;;10.96;100.00;102076.59;4172849;28;20079;-81
2023/05/26 05:43:45;;;;;;;30.13;18.80;;;11.60;99.90;;;11.02;100.00;102076.91;4174221;28;20018;-81
2023/05/26 05:45:46;;;;;;;33.75;19.85;;;11.70;99.90;;;11.02;100.00;102070.81;4171090;28;20041;-81
2023/05/26 05:47:47;;;;;;;27.98;18.42;;;11.70;99.90;;;11.05;100.00;102074.03;4176016;28;20085;-81
2023/05/26 05:49:47;;;;;;;30.08;18.77;;;11.70;99.90;;;11.07;100.00;102066.84;4171167;28;20041;-81
2023/05/26 05:51:48;;;;;;;32.88;19.42;;;11.80;99.90;;;11.27;100.00;102093.38;4171157;28;20065;-81
2023/05/26 05:53:49;;;;;;;28.75;19.42;;;11.80;99.90;;;11.19;100.00;102083.47;4171138;28;20029;-81
2023/05/26 05:55:50;;;;;;;33.15;19.08;;;11.90;99.90;;;11.23;100.00;102071.66;4171118;28;20036;-81
2023/05/26 05:57:52;;;;;;;34.47;17.80;;;11.80;99.90;;;11.39;100.00;102098.47;4173641;28;20022;-81
2023/05/26 05:59:53;;;;;;;31.35;18.45;;;11.90;99.90;;;11.44;100.00;102098.13;4180249;28;20480;-81
2023/05/26 06:01:54;;;;;;;25.75;17.55;;;11.90;99.90;;;11.39;100.00;102084.44;4169910;28;20025;-81
2023/05/26 06:03:55;;;;;;;31.45;18.25;;;12.00;99.90;;;11.48;100.00;102079.22;4171001;28;20508;-81
2023/05/26 06:05:56;;;;;;;33.95;18.05;;;12.10;99.90;;;11.52;100.00;102080.66;4181677;28;20028;-84
2023/05/26 06:07:57;;;;;;;29.35;18.75;;;12.10;99.90;;;11.52;100.00;102071.88;4186102;28;20028;-84
2023/05/26 06:09:57;;;;;;;29.20;18.70;;;12.20;99.90;;;11.70;100.00;102077.44;4167624;28;20044;-83
2023/05/26 06:11:58;;;;;;;23.90;17.70;;;12.30;99.90;;;11.70;100.00;102072.16;4175065;28;20029;-82
2023/05/26 06:13:59;;;;;;;29.85;18.38;;;12.30;99.90;;;11.78;100.00;102075.81;4171233;28;20037;-83
2023/05/26 06:16:00;;;;;;;28.10;17.88;;;12.30;99.90;;;11.81;100.00;102082.63;4181140;28;20036;-82
2023/05/26 06:18:01;;;;;;;29.65;17.35;;;12.40;99.90;;;11.84;100.00;102077.94;4173900;28;20025;-82
2023/05/26 06:20:02;;;;;;;22.73;16.80;;;12.50;99.90;;;11.95;100.00;102077.84;4170806;28;20041;-82
2023/05/26 06:22:03;;;;;;;25.30;16.85;;;12.50;99.90;;;11.99;100.00;102073.97;4171171;28;20021;-83
2023/05/26 06:24:04;;;;;;;25.58;17.42;;;12.60;99.90;;;12.11;100.00;102087.94;4181653;28;20068;-78
2023/05/26 06:26:05;;;;;;;24.65;15.57;;;12.60;99.90;;;12.27;100.00;102096.22;4173822;28;20063;-76
2023/05/26 06:28:06;;;;;;;27.40;17.52;;;12.70;99.90;;;12.75;100.00;102102.44;4184979;28;20491;-76
2023/05/26 06:30:07;;;;;;;25.98;16.13;;;12.80;99.90;;;13.10;100.00;102087.88;4179578;28;20017;-76
2023/05/26 06:32:08;;;;;;;24.05;15.88;;;13.10;99.90;;;13.15;100.00;102083.00;4178786;28;20033;-76
2023/05/26 06:34:09;;;;;;;28.13;16.20;;;13.20;99.90;;;13.16;100.00;102092.63;4169142;28;20025;-77
2023/05/26 06:36:11;;;;;;;24.77;16.08;;;13.30;99.90;;;13.00;100.00;102097.59;4174661;28;20549;-77
2023/05/26 06:38:12;;;;;;;27.80;15.88;;;13.30;99.90;;;12.94;100.00;102101.66;4175973;28;20036;-77
2023/05/26 06:40:13;;;;;;;26.77;15.38;;;13.40;99.90;;;12.78;100.00;102077.53;4170221;28;20034;-77
2023/05/26 06:42:13;;;;;;;22.58;15.23;;;13.40;99.90;;;12.77;100.00;102081.16;4176420;28;20574;-77
2023/05/26 06:44:15;;;;;;;23.02;15.82;;;13.40;99.90;;;12.75;100.00;102077.81;4170360;28;20037;-77
2023/05/26 06:46:15;;;;;;;32.83;16.45;;;13.40;99.90;;;12.80;100.00;102077.38;4184974;28;20059;-77
2023/05/26 06:48:16;;;;;;;25.55;15.63;;;13.40;99.90;;;12.91;100.00;102088.69;4176723;28;20025;-77
2023/05/26 06:50:17;;;;;;;27.02;15.30;;;13.50;99.90;;;12.96;100.00;102091.75;4180687;28;20064;-78
2023/05/26 06:52:18;;;;;;;27.20;16.52;;;13.50;99.90;;;12.92;100.00;102082.41;4186761;28;20511;-77
2023/05/26 06:54:19;;;;;;;25.48;14.90;;;13.60;99.90;;;12.96;100.00;102075.84;4182566;28;20045;-77
2023/05/26 06:56:20;;;;;;;22.50;14.43;;;13.60;99.90;;;13.04;100.00;102077.81;4170462;28;20029;-77
2023/05/26 06:58:21;;;;;;;23.23;15.23;;;13.70;99.90;;;13.22;100.00;102092.91;4171269;28;20033;-77
2023/05/26 07:00:22;;;;;;;21.80;13.75;;;13.70;99.90;;;13.32;100.00;102090.22;4169705;28;20064;-77
2023/05/26 07:02:23;;;;;;;24.65;15.73;;;13.80;99.90;;;13.31;100.00;102085.94;4170162;28;20040;-75
2023/05/26 07:04:24;;;;;;;17.08;13.98;;;13.80;99.90;;;13.24;100.00;102075.06;4170946;28;20033;-78
2023/05/26 07:06:25;;;;;;;21.63;14.13;;;13.90;99.90;;;13.47;100.00;102085.34;4175907;28;20104;-77
2023/05/26 07:08:27;;;;;;;20.98;14.00;;;13.90;99.90;;;13.45;100.00;102066.94;4172951;28;20500;-77
2023/05/26 07:10:27;;;;;;;21.75;14.43;;;14.00;99.90;;;13.54;100.00;102071.38;4179286;28;20022;-77
2023/05/26 07:12:28;;;;;;;18.77;12.52;;;14.10;99.90;;;13.61;100.00;102072.50;4185961;28;20063;-77
2023/05/26 07:14:29;;;;;;;22.45;13.95;;;14.20;99.90;;;13.74;100.00;102088.06;4169850;28;20029;-76
2023/05/26 07:16:30;;;;;;;26.63;14.60;;;14.30;99.90;;;13.81;100.00;102086.53;4171289;28;20124;-76
2023/05/26 07:18:31;;;;;;;21.88;14.50;;;14.30;99.90;;;13.77;100.00;102066.56;4185160;28;20025;-76
2023/05/26 07:20:32;;;;;;;18.85;11.80;;;14.40;99.90;;;14.03;100.00;102088.00;4192890;28;20519;-76
2023/05/26 07:22:33;;;;;;;16.92;11.55;;;14.50;99.90;;;14.08;100.00;102086.56;4169826;28;20087;-76
2023/05/26 07:24:34;;;;;;;19.83;12.98;;;14.60;99.90;;;14.09;100.00;102072.31;4169525;28;20045;-78
2023/05/26 07:26:34;;;;;;;21.88;12.85;;;14.60;99.90;;;14.19;100.00;102078.41;4172739;28;20424;-77
2023/05/26 07:28:35;;;;;;;17.55;13.23;;;14.70;99.90;;;14.07;100.00;102066.31;4178427;28;20025;-80
2023/05/26 07:30:36;;;;;;;25.33;14.30;;;14.80;99.90;;;14.26;100.00;102092.78;4168858;28;20017;-81
2023/05/26 07:32:37;;;;;;;17.17;11.77;;;14.80;99.90;;;14.37;100.00;102081.97;4178602;28;20480;-82
2023/05/26 07:34:38;;;;;;;19.20;12.25;;;14.90;99.90;;;14.46;100.00;102074.94;4168672;28;20072;-82
2023/05/26 07:36:39;;;;;;;19.88;12.68;;;14.90;99.90;;;14.64;100.00;102089.09;4172220;28;20106;-79
2023/05/26 07:38:40;;;;;;;17.67;11.45;;;15.10;99.90;;;14.77;100.00;102096.69;4175297;28;20033;-80
2023/05/26 07:40:41;;;;;;;23.95;12.88;;;15.20;99.90;;;14.76;100.00;102097.69;4175100;28;20029;-81
2023/05/26 07:42:42;;;;;;;21.20;12.20;;;15.30;99.90;;;14.73;100.00;102076.72;4175601;28;20025;-82
2023/05/26 07:44:43;;;;;;;17.27;11.13;;;15.30;99.90;;;14.88;100.00;102094.66;4168970;28;20033;-83
2023/05/26 07:46:43;;;;;;;20.58;13.05;;;15.40;99.90;;;14.96;100.00;102093.91;4176789;28;20051;-81
2023/05/26 07:48:44;;;;;;;20.45;11.93;;;15.40;99.90;;;14.89;100.00;102076.91;4171925;28;20036;-82
2023/05/26 07:50:45;;;;;;;21.23;11.98;;;15.50;99.90;;;14.95;100.00;102074.47;4170491;28;20675;-85
2023/05/26 07:52:46;;;;;;;24.13;11.77;;;15.60;99.90;;;15.10;100.00;102089.88;4200529;28;20028;-81
2023/05/26 07:54:47;;;;;;;18.52;12.13;;;15.60;99.90;;;15.06;100.00;102075.22;4173498;28;20026;-81
2023/05/26 07:56:48;;;;;;;19.80;11.88;;;15.70;99.90;;;15.16;100.00;102074.16;4176031;28;20039;-78
2023/05/26 07:58:49;;;;;;;18.40;11.25;;;15.70;99.90;;;15.32;100.00;102078.78;4169220;28;20540;-79
2023/05/26 08:00:50;;;;;;;19.15;11.90;;;15.90;99.90;;;15.41;100.00;102089.31;4168624;28;20404;-78
2023/05/26 08:02:52;;;;;;;19.02;11.93;;;15.90;99.90;;;15.45;100.00;102074.72;4168613;28;20041;-79
2023/05/26 08:04:52;;;;;;;18.80;11.52;;;16.00;99.90;;;15.73;100.00;102094.06;4176029;28;20033;-78
2023/05/26 08:06:53;;;;;;;15.20;10.40;;;16.10;99.90;;;15.68;100.00;102075.06;4170052;28;20018;-76
2023/05/26 08:08:55;;;;;;;19.00;10.93;;;16.30;99.90;;;15.85;100.00;102070.69;4169517;28;20029;-78
2023/05/26 08:10:55;;;;;;;17.45;12.18;;;16.40;99.90;;;15.91;100.00;102070.06;4170910;28;20151;-79
2023/05/26 08:12:56;;;;;;;16.38;11.80;;;16.50;99.90;;;16.13;100.00;102085.47;4168962;28;20033;-78